sensor_id;sensor_type;location;lat;lon;timestamp;pressure;altitude;pressure_sealevel;temperature;humidity
16200;BME280;8207;52.494;4.654;2024-03-02T00:00:49;99737.81;;;7.61;100.00
16200;BME280;8207;52.494;4.654;2024-03-02T00:03:15;99735.09;;;7.46;100.00
16200;BME280;8207;52.494;4.654;2024-03-02T00:05:40;99726.97;;;7.31;100.00
16200;BME280;8207;52.494;4.654;2024-03-02T00:08:07;99730.75;;;7.14;100.00
16200;BME280;8207;52.494;4.654;2024-03-02T00:10:37;99720.31;;;6.96;100.00
16200;BME280;8207;52.494;4.654;2024-03-02T00:13:05;99723.19;;;6.86;100.00
16200;BME280;8207;52.494;4.654;2024-03-02T00:18:11;99740.28;;;6.69;100.00
16200;BME280;8207;52.494;4.654;2024-03-02T00:20:38;99734.16;;;6.60;100.00
16200;BME280;8207;52.494;4.654;2024-03-02T00:23:05;99735.84;;;6.53;100.00
16200;BME280;8207;52.494;4.654;2024-03-02T00:25:41;99750.22;;;6.44;100.00
16200;BME280;8207;52.494;4.654;2024-03-02T00:28:30;99740.72;;;6.33;100.00
16200;BME280;8207;52.494;4.654;2024-03-02T00:31:12;99736.91;;;6.28;100.00
16200;BME280;8207;52.494;4.654;2024-03-02T00:33:44;99744.41;;;6.24;100.00
16200;BME280;8207;52.494;4.654;2024-03-02T00:36:12;99750.25;;;6.19;100.00
16200;BME280;8207;52.494;4.654;2024-03-02T00:38:48;99762.13;;;6.17;100.00
16200;BME280;8207;52.494;4.654;2024-03-02T00:41:22;99779.50;;;6.13;100.00
16200;BME280;8207;52.494;4.654;2024-03-02T00:46:22;99779.31;;;6.06;100.00
16200;BME280;8207;52.494;4.654;2024-03-02T00:48:55;99778.50;;;6.06;100.00
16200;BME280;8207;52.494;4.654;2024-03-02T00:51:22;99765.47;;;6.03;100.00
16200;BME280;8207;52.494;4.654;2024-03-02T00:53:48;99772.81;;;6.00;100.00
16200;BME280;8207;52.494;4.654;2024-03-02T00:56:13;99764.97;;;5.99;100.00
16200;BME280;8207;52.494;4.654;2024-03-02T00:58:39;99774.47;;;5.93;100.00
16200;BME280;8207;52.494;4.654;2024-03-02T01:01:05;99787.13;;;5.91;100.00
16200;BME280;8207;52.494;4.654;2024-03-02T01:03:32;99781.13;;;5.89;100.00
16200;BME280;8207;52.494;4.654;2024-03-02T01:05:57;99773.09;;;5.89;100.00
16200;BME280;8207;52.494;4.654;2024-03-02T01:08:23;99783.59;;;5.83;100.00
16200;BME280;8207;52.494;4.654;2024-03-02T01:10:51;99774.94;;;5.81;100.00
16200;BME280;8207;52.494;4.654;2024-03-02T01:13:16;99780.63;;;5.77;100.00
16200;BME280;8207;52.494;4.654;2024-03-02T01:15:42;99779.78;;;5.77;100.00
16200;BME280;8207;52.494;4.654;2024-03-02T01:18:07;99782.59;;;5.75;100.00
16200;BME280;8207;52.494;4.654;2024-03-02T01:20:33;99780.09;;;5.74;100.00
16200;BME280;8207;52.494;4.654;2024-03-02T01:22:58;99776.75;;;5.72;100.00
16200;BME280;8207;52.494;4.654;2024-03-02T01:25:23;99766.59;;;5.67;100.00
16200;BME280;8207;52.494;4.654;2024-03-02T01:27:50;99777.59;;;5.64;100.00
16200;BME280;8207;52.494;4.654;2024-03-02T01:30:15;99778.59;;;5.63;100.00
16200;BME280;8207;52.494;4.654;2024-03-02T01:32:41;99771.56;;;5.62;100.00
16200;BME280;8207;52.494;4.654;2024-03-02T01:35:06;99768.56;;;5.57;100.00
16200;BME280;8207;52.494;4.654;2024-03-02T01:37:32;99770.91;;;5.52;100.00
16200;BME280;8207;52.494;4.654;2024-03-02T01:39:58;99775.38;;;5.51;100.00
16200;BME280;8207;52.494;4.654;2024-03-02T01:42:23;99771.38;;;5.47;100.00
16200;BME280;8207;52.494;4.654;2024-03-02T01:44:49;99772.69;;;5.43;100.00
16200;BME280;8207;52.494;4.654;2024-03-02T01:47:14;99797.22;;;5.39;100.00
16200;BME280;8207;52.494;4.654;2024-03-02T01:49:39;99795.69;;;5.36;100.00
16200;BME280;8207;52.494;4.654;2024-03-02T01:52:06;99798.22;;;5.38;100.00
16200;BME280;8207;52.494;4.654;2024-03-02T01:54:32;99797.53;;;5.36;100.00
16200;BME280;8207;52.494;4.654;2024-03-02T01:56:58;99814.53;;;5.35;100.00
16200;BME280;8207;52.494;4.654;2024-03-02T01:59:23;99826.88;;;5.36;100.00
16200;BME280;8207;52.494;4.654;2024-03-02T02:01:48;99825.34;;;5.33;100.00
16200;BME280;8207;52.494;4.654;2024-03-02T02:04:14;99810.53;;;5.31;100.00
16200;BME280;8207;52.494;4.654;2024-03-02T02:06:39;99790.00;;;5.23;100.00
16200;BME280;8207;52.494;4.654;2024-03-02T02:09:05;99810.16;;;5.25;100.00
16200;BME280;8207;52.494;4.654;2024-03-02T02:11:33;99806.66;;;5.25;100.00
16200;BME280;8207;52.494;4.654;2024-03-02T02:13:58;99804.84;;;5.25;100.00
16200;BME280;8207;52.494;4.654;2024-03-02T02:16:24;99805.84;;;5.24;100.00
16200;BME280;8207;52.494;4.654;2024-03-02T02:18:49;99817.00;;;5.20;100.00
16200;BME280;8207;52.494;4.654;2024-03-02T02:21:14;99821.66;;;5.18;100.00
16200;BME280;8207;52.494;4.654;2024-03-02T02:23:39;99821.31;;;5.13;100.00
16200;BME280;8207;52.494;4.654;2024-03-02T02:26:05;99810.13;;;5.09;100.00
16200;BME280;8207;52.494;4.654;2024-03-02T02:28:30;99814.44;;;5.10;100.00
16200;BME280;8207;52.494;4.654;2024-03-02T02:30:56;99811.97;;;5.09;100.00
16200;BME280;8207;52.494;4.654;2024-03-02T02:33:21;99818.44;;;5.06;100.00
16200;BME280;8207;52.494;4.654;2024-03-02T02:35:47;99816.25;;;5.01;100.00
16200;BME280;8207;52.494;4.654;2024-03-02T02:38:12;99821.91;;;4.98;100.00
16200;BME280;8207;52.494;4.654;2024-03-02T02:40:38;99818.72;;;4.95;100.00
16200;BME280;8207;52.494;4.654;2024-03-02T02:43:03;99825.03;;;4.94;100.00
16200;BME280;8207;52.494;4.654;2024-03-02T02:45:28;99832.88;;;4.95;100.00
16200;BME280;8207;52.494;4.654;2024-03-02T02:47:54;99828.06;;;4.99;100.00
16200;BME280;8207;52.494;4.654;2024-03-02T02:50:19;99840.38;;;5.00;100.00
16200;BME280;8207;52.494;4.654;2024-03-02T02:52:45;99834.06;;;5.01;100.00
16200;BME280;8207;52.494;4.654;2024-03-02T02:55:11;99830.09;;;5.05;100.00
16200;BME280;8207;52.494;4.654;2024-03-02T02:57:39;99834.75;;;5.03;100.00
16200;BME280;8207;52.494;4.654;2024-03-02T03:00:07;99836.41;;;5.04;100.00
16200;BME280;8207;52.494;4.654;2024-03-02T03:02:38;99830.75;;;5.07;100.00
16200;BME280;8207;52.494;4.654;2024-03-02T03:05:05;99837.75;;;5.08;100.00
16200;BME280;8207;52.494;4.654;2024-03-02T03:07:31;99833.28;;;5.09;100.00
16200;BME280;8207;52.494;4.654;2024-03-02T03:09:57;99834.13;;;5.09;100.00
16200;BME280;8207;52.494;4.654;2024-03-02T03:12:23;99846.13;;;5.13;100.00
16200;BME280;8207;52.494;4.654;2024-03-02T03:14:48;99841.47;;;5.15;100.00
16200;BME280;8207;52.494;4.654;2024-03-02T03:17:13;99842.16;;;5.17;100.00
16200;BME280;8207;52.494;4.654;2024-03-02T03:19:39;99835.28;;;5.15;100.00
16200;BME280;8207;52.494;4.654;2024-03-02T03:22:04;99840.47;;;5.16;100.00
16200;BME280;8207;52.494;4.654;2024-03-02T03:24:29;99843.97;;;5.17;100.00
16200;BME280;8207;52.494;4.654;2024-03-02T03:26:55;99844.63;;;5.19;100.00
16200;BME280;8207;52.494;4.654;2024-03-02T03:29:20;99837.66;;;5.18;100.00
16200;BME280;8207;52.494;4.654;2024-03-02T03:31:45;99845.16;;;5.22;100.00
16200;BME280;8207;52.494;4.654;2024-03-02T03:34:11;99849.66;;;5.22;100.00
16200;BME280;8207;52.494;4.654;2024-03-02T03:36:41;99856.00;;;5.21;100.00
16200;BME280;8207;52.494;4.654;2024-03-02T03:39:06;99848.00;;;5.21;100.00
16200;BME280;8207;52.494;4.654;2024-03-02T03:41:31;99850.50;;;5.22;100.00
16200;BME280;8207;52.494;4.654;2024-03-02T03:43:57;99852.19;;;5.23;100.00
16200;BME280;8207;52.494;4.654;2024-03-02T03:46:22;99848.69;;;5.23;100.00
16200;BME280;8207;52.494;4.654;2024-03-02T03:48:47;99853.00;;;5.24;100.00
16200;BME280;8207;52.494;4.654;2024-03-02T03:51:13;99854.69;;;5.25;100.00
16200;BME280;8207;52.494;4.654;2024-03-02T03:53:38;99857.16;;;5.26;100.00
16200;BME280;8207;52.494;4.654;2024-03-02T03:56:03;99854.69;;;5.25;100.00
16200;BME280;8207;52.494;4.654;2024-03-02T03:58:29;99846.03;;;5.23;100.00
16200;BME280;8207;52.494;4.654;2024-03-02T04:00:54;99862.84;;;5.23;100.00
16200;BME280;8207;52.494;4.654;2024-03-02T04:03:20;99857.00;;;5.20;100.00
16200;BME280;8207;52.494;4.654;2024-03-02T04:05:45;99869.97;;;5.15;100.00
16200;BME280;8207;52.494;4.654;2024-03-02T04:08:10;99863.13;;;5.12;100.00
16200;BME280;8207;52.494;4.654;2024-03-02T04:10:36;99866.13;;;5.09;100.00
16200;BME280;8207;52.494;4.654;2024-03-02T04:13:02;99869.75;;;5.08;100.00
16200;BME280;8207;52.494;4.654;2024-03-02T04:15:27;99867.56;;;5.03;100.00
16200;BME280;8207;52.494;4.654;2024-03-02T04:17:53;99869.59;;;5.01;100.00
16200;BME280;8207;52.494;4.654;2024-03-02T04:20:18;99872.56;;;4.98;100.00
16200;BME280;8207;52.494;4.654;2024-03-02T04:22:43;99879.03;;;4.96;100.00
16200;BME280;8207;52.494;4.654;2024-03-02T04:25:08;99886.03;;;4.97;100.00
16200;BME280;8207;52.494;4.654;2024-03-02T04:27:35;99883.38;;;4.97;100.00
16200;BME280;8207;52.494;4.654;2024-03-02T04:30:00;99885.50;;;4.93;100.00
16200;BME280;8207;52.494;4.654;2024-03-02T04:32:26;99885.69;;;4.92;100.00
16200;BME280;8207;52.494;4.654;2024-03-02T04:34:52;99884.00;;;4.91;100.00
16200;BME280;8207;52.494;4.654;2024-03-02T04:37:17;99884.97;;;4.90;100.00
16200;BME280;8207;52.494;4.654;2024-03-02T04:39:43;99882.63;;;4.87;100.00
16200;BME280;8207;52.494;4.654;2024-03-02T04:42:08;99891.09;;;4.82;100.00
16200;BME280;8207;52.494;4.654;2024-03-02T04:44:33;99895.78;;;4.80;100.00
16200;BME280;8207;52.494;4.654;2024-03-02T04:46:59;99888.22;;;4.75;100.00
16200;BME280;8207;52.494;4.654;2024-03-02T04:49:24;99893.25;;;4.78;100.00
16200;BME280;8207;52.494;4.654;2024-03-02T04:51:50;99891.41;;;4.79;100.00
16200;BME280;8207;52.494;4.654;2024-03-02T04:54:15;99885.88;;;4.72;100.00
16200;BME280;8207;52.494;4.654;2024-03-02T04:56:40;99896.53;;;4.72;100.00
16200;BME280;8207;52.494;4.654;2024-03-02T04:59:10;99894.19;;;4.69;100.00
16200;BME280;8207;52.494;4.654;2024-03-02T05:01:35;99889.84;;;4.68;100.00
16200;BME280;8207;52.494;4.654;2024-03-02T05:04:01;99901.66;;;4.66;100.00
16200;BME280;8207;52.494;4.654;2024-03-02T05:06:26;99898.47;;;4.62;100.00
16200;BME280;8207;52.494;4.654;2024-03-02T05:08:51;99901.81;;;4.64;100.00
16200;BME280;8207;52.494;4.654;2024-03-02T05:11:17;99910.09;;;4.61;100.00
16200;BME280;8207;52.494;4.654;2024-03-02T05:14:13;99917.13;;;4.62;100.00
16200;BME280;8207;52.494;4.654;2024-03-02T05:16:39;99927.09;;;4.60;100.00
16200;BME280;8207;52.494;4.654;2024-03-02T05:19:05;99911.41;;;4.57;100.00
16200;BME280;8207;52.494;4.654;2024-03-02T05:21:34;99919.56;;;4.55;100.00
16200;BME280;8207;52.494;4.654;2024-03-02T05:23:59;99916.06;;;4.55;100.00
16200;BME280;8207;52.494;4.654;2024-03-02T05:26:25;99922.22;;;4.55;100.00
16200;BME280;8207;52.494;4.654;2024-03-02T05:28:50;99921.41;;;4.55;100.00
16200;BME280;8207;52.494;4.654;2024-03-02T05:31:16;99927.56;;;4.55;100.00
16200;BME280;8207;52.494;4.654;2024-03-02T05:33:44;99929.00;;;4.50;100.00
16200;BME280;8207;52.494;4.654;2024-03-02T05:36:09;99938.00;;;4.49;100.00
16200;BME280;8207;52.494;4.654;2024-03-02T05:38:35;99930.66;;;4.51;100.00
16200;BME280;8207;52.494;4.654;2024-03-02T05:41:00;99932.88;;;4.55;100.00
16200;BME280;8207;52.494;4.654;2024-03-02T05:43:26;99939.06;;;4.56;100.00
16200;BME280;8207;52.494;4.654;2024-03-02T05:45:51;99944.38;;;4.56;100.00
16200;BME280;8207;52.494;4.654;2024-03-02T05:48:16;99936.09;;;4.59;100.00
16200;BME280;8207;52.494;4.654;2024-03-02T05:50:42;99940.41;;;4.60;100.00
16200;BME280;8207;52.494;4.654;2024-03-02T05:53:07;99935.91;;;4.61;100.00
16200;BME280;8207;52.494;4.654;2024-03-02T05:55:32;99946.09;;;4.65;100.00
16200;BME280;8207;52.494;4.654;2024-03-02T05:57:58;99947.81;;;4.66;100.00
16200;BME280;8207;52.494;4.654;2024-03-02T06:00:23;99946.81;;;4.67;100.00
16200;BME280;8207;52.494;4.654;2024-03-02T06:02:48;99944.31;;;4.66;100.00
16200;BME280;8207;52.494;4.654;2024-03-02T06:05:14;99940.47;;;4.68;100.00
16200;BME280;8207;52.494;4.654;2024-03-02T06:07:41;99952.28;;;4.66;100.00
16200;BME280;8207;52.494;4.654;2024-03-02T06:10:06;99959.81;;;4.70;100.00
16200;BME280;8207;52.494;4.654;2024-03-02T06:12:34;99953.50;;;4.71;100.00
16200;BME280;8207;52.494;4.654;2024-03-02T06:14:59;99953.50;;;4.71;100.00
16200;BME280;8207;52.494;4.654;2024-03-02T06:17:24;99957.81;;;4.72;100.00
16200;BME280;8207;52.494;4.654;2024-03-02T06:19:50;99955.16;;;4.72;100.00
16200;BME280;8207;52.494;4.654;2024-03-02T06:22:15;99955.16;;;4.72;100.00
16200;BME280;8207;52.494;4.654;2024-03-02T06:24:40;99959.88;;;4.78;100.00
16200;BME280;8207;52.494;4.654;2024-03-02T06:27:06;99965.06;;;4.80;100.00
16200;BME280;8207;52.494;4.654;2024-03-02T06:29:34;99961.41;;;4.81;100.00
16200;BME280;8207;52.494;4.654;2024-03-02T06:31:59;99964.91;;;4.81;100.00
16200;BME280;8207;52.494;4.654;2024-03-02T06:34:25;99964.91;;;4.81;100.00
16200;BME280;8207;52.494;4.654;2024-03-02T06:36:50;99969.41;;;4.81;100.00
16200;BME280;8207;52.494;4.654;2024-03-02T06:39:16;99962.72;;;4.77;100.00
16200;BME280;8207;52.494;4.654;2024-03-02T06:41:41;99969.53;;;4.79;100.00
16200;BME280;8207;52.494;4.654;2024-03-02T06:44:07;99986.53;;;4.78;100.00
16200;BME280;8207;52.494;4.654;2024-03-02T06:46:33;99979.53;;;4.77;100.00
16200;BME280;8207;52.494;4.654;2024-03-02T06:48:58;99984.56;;;4.80;100.00
16200;BME280;8207;52.494;4.654;2024-03-02T06:51:23;99985.22;;;4.82;100.00
16200;BME280;8207;52.494;4.654;2024-03-02T06:53:49;99984.56;;;4.80;100.00
16200;BME280;8207;52.494;4.654;2024-03-02T06:56:14;99979.38;;;4.79;100.00
16200;BME280;8207;52.494;4.654;2024-03-02T06:58:40;99990.34;;;4.76;100.00
16200;BME280;8207;52.494;4.654;2024-03-02T07:01:05;99993.00;;;4.76;100.00
16200;BME280;8207;52.494;4.654;2024-03-02T07:03:30;99985.88;;;4.76;100.00
16200;BME280;8207;52.494;4.654;2024-03-02T07:05:56;99994.53;;;4.78;100.00
16200;BME280;8207;52.494;4.654;2024-03-02T07:08:22;99990.88;;;4.79;100.00
16200;BME280;8207;52.494;4.654;2024-03-02T07:10:47;99992.88;;;4.77;100.00
16200;BME280;8207;52.494;4.654;2024-03-02T07:13:12;99999.72;;;4.80;100.00
16200;BME280;8207;52.494;4.654;2024-03-02T07:15:38;99989.91;;;4.80;100.00
16200;BME280;8207;52.494;4.654;2024-03-02T07:18:30;100000.56;;;4.80;100.00
16200;BME280;8207;52.494;4.654;2024-03-02T07:20:59;100004.72;;;4.83;100.00
16200;BME280;8207;52.494;4.654;2024-03-02T07:23:26;100006.25;;;4.86;100.00
16200;BME280;8207;52.494;4.654;2024-03-02T07:25:53;100001.75;;;4.86;100.00
16200;BME280;8207;52.494;4.654;2024-03-02T07:28:25;100010.28;;;4.90;100.00
16200;BME280;8207;52.494;4.654;2024-03-02T07:31:01;100010.50;;;4.96;100.00
16200;BME280;8207;52.494;4.654;2024-03-02T07:33:27;100013.56;;;5.01;100.00
16200;BME280;8207;52.494;4.654;2024-03-02T07:35:53;100012.09;;;5.07;100.00
16200;BME280;8207;52.494;4.654;2024-03-02T07:38:19;100005.31;;;5.13;100.00
16200;BME280;8207;52.494;4.654;2024-03-02T07:40:44;100011.47;;;5.13;100.00
16200;BME280;8207;52.494;4.654;2024-03-02T07:43:10;100014.81;;;5.15;100.00
16200;BME280;8207;52.494;4.654;2024-03-02T07:45:35;100012.66;;;5.19;100.00
16200;BME280;8207;52.494;4.654;2024-03-02T07:48:01;100019.53;;;5.21;100.00
16200;BME280;8207;52.494;4.654;2024-03-02T07:50:29;100028.22;;;5.23;100.00
16200;BME280;8207;52.494;4.654;2024-03-02T07:52:55;100038.25;;;5.29;100.00
16200;BME280;8207;52.494;4.654;2024-03-02T07:55:21;100036.81;;;5.35;100.00
16200;BME280;8207;52.494;4.654;2024-03-02T07:57:46;100032.00;;;5.39;100.00
16200;BME280;8207;52.494;4.654;2024-03-02T08:00:12;100030.50;;;5.44;100.00
16200;BME280;8207;52.494;4.654;2024-03-02T08:02:37;100028.38;;;5.48;100.00
16200;BME280;8207;52.494;4.654;2024-03-02T08:05:03;100035.22;;;5.50;100.00
16200;BME280;8207;52.494;4.654;2024-03-02T08:07:28;100041.41;;;5.51;100.00
16200;BME280;8207;52.494;4.654;2024-03-02T08:09:54;100046.41;;;5.54;100.00
16200;BME280;8207;52.494;4.654;2024-03-02T08:12:19;100034.44;;;5.58;100.00
16200;BME280;8207;52.494;4.654;2024-03-02T08:14:47;100031.09;;;5.56;100.00
16200;BME280;8207;52.494;4.654;2024-03-02T08:17:12;100040.81;;;5.65;100.00
16200;BME280;8207;52.494;4.654;2024-03-02T08:19:38;100049.19;;;5.70;100.00
16200;BME280;8207;52.494;4.654;2024-03-02T08:22:03;100042.22;;;5.77;100.00
16200;BME280;8207;52.494;4.654;2024-03-02T08:24:29;100041.06;;;5.80;100.00
16200;BME280;8207;52.494;4.654;2024-03-02T08:26:54;100037.41;;;5.81;100.00
16200;BME280;8207;52.494;4.654;2024-03-02T08:29:19;100041.56;;;5.84;100.00
16200;BME280;8207;52.494;4.654;2024-03-02T08:31:45;100028.00;;;5.95;100.00
16200;BME280;8207;52.494;4.654;2024-03-02T08:34:10;100035.53;;;5.99;100.00
16200;BME280;8207;52.494;4.654;2024-03-02T08:36:36;100029.38;;;6.07;100.00
16200;BME280;8207;52.494;4.654;2024-03-02T08:39:01;100018.50;;;6.09;100.00
16200;BME280;8207;52.494;4.654;2024-03-02T08:41:28;100026.06;;;6.13;100.00
16200;BME280;8207;52.494;4.654;2024-03-02T08:43:53;100022.56;;;6.13;100.00
16200;BME280;8207;52.494;4.654;2024-03-02T08:46:19;100031.09;;;6.16;100.00
16200;BME280;8207;52.494;4.654;2024-03-02T08:48:45;100029.06;;;6.18;100.00
16200;BME280;8207;52.494;4.654;2024-03-02T08:51:10;100028.44;;;6.24;100.00
16200;BME280;8207;52.494;4.654;2024-03-02T08:53:36;100023.94;;;6.25;100.00
16200;BME280;8207;52.494;4.654;2024-03-02T08:56:01;100035.81;;;6.31;100.00
16200;BME280;8207;52.494;4.654;2024-03-02T08:58:27;100030.28;;;6.32;100.00
16200;BME280;8207;52.494;4.654;2024-03-02T09:00:52;100029.78;;;6.37;100.00
16200;BME280;8207;52.494;4.654;2024-03-02T09:03:18;100027.13;;;6.37;100.00
16200;BME280;8207;52.494;4.654;2024-03-02T09:05:43;100043.53;;;6.42;100.00
16200;BME280;8207;52.494;4.654;2024-03-02T09:08:08;100032.00;;;6.49;100.00
16200;BME280;8207;52.494;4.654;2024-03-02T09:10:34;100036.00;;;6.45;100.00
16200;BME280;8207;52.494;4.654;2024-03-02T09:13:00;100038.19;;;6.50;100.00
16200;BME280;8207;52.494;4.654;2024-03-02T09:15:25;100035.53;;;6.58;100.00
16200;BME280;8207;52.494;4.654;2024-03-02T09:17:50;100036.53;;;6.65;100.00
16200;BME280;8207;52.494;4.654;2024-03-02T09:20:19;100036.41;;;6.75;100.00
16200;BME280;8207;52.494;4.654;2024-03-02T09:22:44;100029.88;;;6.86;100.00
16200;BME280;8207;52.494;4.654;2024-03-02T09:25:12;100041.78;;;6.91;100.00
16200;BME280;8207;52.494;4.654;2024-03-02T09:27:38;100043.94;;;6.96;100.00
16200;BME280;8207;52.494;4.654;2024-03-02T09:30:12;100041.94;;;7.06;100.00
16200;BME280;8207;52.494;4.654;2024-03-02T09:32:39;100041.94;;;7.06;100.00
16200;BME280;8207;52.494;4.654;2024-03-02T09:35:05;100041.25;;;7.12;100.00
16200;BME280;8207;52.494;4.654;2024-03-02T09:37:30;100040.25;;;7.13;98.01
16200;BME280;8207;52.494;4.654;2024-03-02T09:39:56;100028.88;;;7.19;99.13
16200;BME280;8207;52.494;4.654;2024-03-02T09:42:21;100033.75;;;7.24;99.42
16200;BME280;8207;52.494;4.654;2024-03-02T09:44:48;100032.56;;;7.35;97.38
16200;BME280;8207;52.494;4.654;2024-03-02T09:47:13;100032.41;;;7.28;96.16
16200;BME280;8207;52.494;4.654;2024-03-02T09:49:39;100026.88;;;7.38;96.76
16200;BME280;8207;52.494;4.654;2024-03-02T09:52:05;100041.06;;;7.47;97.17
16200;BME280;8207;52.494;4.654;2024-03-02T09:54:32;100039.88;;;7.57;95.18
16200;BME280;8207;52.494;4.654;2024-03-02T09:56:57;100045.38;;;7.64;94.90
16200;BME280;8207;52.494;4.654;2024-03-02T09:59:22;100054.56;;;7.69;92.16
16200;BME280;8207;52.494;4.654;2024-03-02T10:04:26;100042.13;;;7.93;93.98
16200;BME280;8207;52.494;4.654;2024-03-02T10:07:09;100050.28;;;8.08;93.58
16200;BME280;8207;52.494;4.654;2024-03-02T10:09:36;100054.94;;;8.14;91.25
16200;BME280;8207;52.494;4.654;2024-03-02T10:12:04;100049.88;;;8.19;90.76
16200;BME280;8207;52.494;4.654;2024-03-02T10:14:30;100062.31;;;8.12;88.29
16200;BME280;8207;52.494;4.654;2024-03-02T10:17:02;100062.06;;;8.30;89.32
16200;BME280;8207;52.494;4.654;2024-03-02T10:19:28;100042.75;;;8.34;89.76
16200;BME280;8207;52.494;4.654;2024-03-02T10:21:57;100052.97;;;8.47;88.43
16200;BME280;8207;52.494;4.654;2024-03-02T10:24:24;100058.28;;;8.55;89.28
16200;BME280;8207;52.494;4.654;2024-03-02T10:26:50;100039.84;;;8.52;86.86
16200;BME280;8207;52.494;4.654;2024-03-02T10:29:15;100048.38;;;8.56;86.10
16200;BME280;8207;52.494;4.654;2024-03-02T10:31:42;100040.59;;;8.69;84.75
16200;BME280;8207;52.494;4.654;2024-03-02T10:34:09;100053.72;;;8.64;82.86
16200;BME280;8207;52.494;4.654;2024-03-02T10:36:35;100056.47;;;8.79;84.71
16200;BME280;8207;52.494;4.654;2024-03-02T10:39:04;100049.50;;;8.93;84.79
16200;BME280;8207;52.494;4.654;2024-03-02T10:41:34;100051.56;;;9.05;85.14
16200;BME280;8207;52.494;4.654;2024-03-02T10:44:02;100049.13;;;9.19;84.82
16200;BME280;8207;52.494;4.654;2024-03-02T10:46:29;100050.72;;;9.28;81.23
16200;BME280;8207;52.494;4.654;2024-03-02T10:48:56;100031.84;;;9.36;80.51
16200;BME280;8207;52.494;4.654;2024-03-02T10:51:24;100029.75;;;9.46;81.55
16200;BME280;8207;52.494;4.654;2024-03-02T10:53:49;100033.06;;;9.63;81.33
16200;BME280;8207;52.494;4.654;2024-03-02T10:56:21;100033.06;;;9.63;80.51
16200;BME280;8207;52.494;4.654;2024-03-02T10:58:51;100035.97;;;9.61;78.90
16200;BME280;8207;52.494;4.654;2024-03-02T11:01:20;100026.88;;;9.63;78.49
16200;BME280;8207;52.494;4.654;2024-03-02T11:03:46;100024.38;;;9.46;78.27
16200;BME280;8207;52.494;4.654;2024-03-02T11:06:13;100038.19;;;9.58;78.43
16200;BME280;8207;52.494;4.654;2024-03-02T11:08:40;100031.97;;;9.57;78.04
16200;BME280;8207;52.494;4.654;2024-03-02T11:11:15;100031.06;;;9.80;77.91
16200;BME280;8207;52.494;4.654;2024-03-02T11:13:42;100025.88;;;9.64;75.67
16200;BME280;8207;52.494;4.654;2024-03-02T11:16:21;100025.06;;;9.78;77.09
16200;BME280;8207;52.494;4.654;2024-03-02T11:18:51;100025.59;;;10.03;77.60
16200;BME280;8207;52.494;4.654;2024-03-02T11:21:17;100029.75;;;10.05;75.77
16200;BME280;8207;52.494;4.654;2024-03-02T11:23:43;100030.97;;;10.03;75.49
16200;BME280;8207;52.494;4.654;2024-03-02T11:26:19;100031.22;;;10.23;76.01
16200;BME280;8207;52.494;4.654;2024-03-02T11:28:44;100032.44;;;10.35;76.17
16200;BME280;8207;52.494;4.654;2024-03-02T11:31:10;100026.44;;;10.54;74.21
16200;BME280;8207;52.494;4.654;2024-03-02T11:33:36;100021.06;;;10.54;71.44
16200;BME280;8207;52.494;4.654;2024-03-02T11:36:01;100032.47;;;10.56;70.75
16200;BME280;8207;52.494;4.654;2024-03-02T11:38:34;100021.19;;;10.46;70.83
16200;BME280;8207;52.494;4.654;2024-03-02T11:41:03;100026.56;;;10.46;72.15
16200;BME280;8207;52.494;4.654;2024-03-02T11:43:32;100027.50;;;10.53;71.04
16200;BME280;8207;52.494;4.654;2024-03-02T11:45:59;100018.19;;;10.77;71.55
16200;BME280;8207;52.494;4.654;2024-03-02T11:48:26;100022.06;;;10.90;68.78
16200;BME280;8207;52.494;4.654;2024-03-02T11:50:52;100011.09;;;10.70;67.02
16200;BME280;8207;52.494;4.654;2024-03-02T11:53:19;100011.97;;;10.77;68.15
16200;BME280;8207;52.494;4.654;2024-03-02T11:55:45;100015.78;;;10.61;67.82
16200;BME280;8207;52.494;4.654;2024-03-02T11:58:11;100013.63;;;10.78;69.39
16200;BME280;8207;52.494;4.654;2024-03-02T12:00:37;100022.38;;;11.01;66.69
16200;BME280;8207;52.494;4.654;2024-03-02T12:03:10;100019.91;;;11.07;67.20
16200;BME280;8207;52.494;4.654;2024-03-02T12:05:37;100013.25;;;11.02;67.32
16200;BME280;8207;52.494;4.654;2024-03-02T12:08:04;100016.84;;;11.10;67.49
16200;BME280;8207;52.494;4.654;2024-03-02T12:10:31;100005.31;;;11.16;67.96
16200;BME280;8207;52.494;4.654;2024-03-02T12:12:57;99995.50;;;11.08;66.27
16200;BME280;8207;52.494;4.654;2024-03-02T12:15:27;100016.16;;;11.01;65.30
16200;BME280;8207;52.494;4.654;2024-03-02T12:17:54;100010.94;;;11.21;66.91
16200;BME280;8207;52.494;4.654;2024-03-02T12:20:20;100001.19;;;11.20;64.45
16200;BME280;8207;52.494;4.654;2024-03-02T12:22:46;100004.16;;;11.32;64.75
16200;BME280;8207;52.494;4.654;2024-03-02T12:25:11;99988.88;;;11.32;61.81
16200;BME280;8207;52.494;4.654;2024-03-02T12:27:39;99993.75;;;11.22;63.19
16200;BME280;8207;52.494;4.654;2024-03-02T12:30:05;99981.78;;;11.03;65.09
16200;BME280;8207;52.494;4.654;2024-03-02T12:32:33;99986.03;;;10.91;66.38
16200;BME280;8207;52.494;4.654;2024-03-02T12:34:59;99982.03;;;11.08;65.10
16200;BME280;8207;52.494;4.654;2024-03-02T12:37:25;99982.09;;;11.15;64.08
16200;BME280;8207;52.494;4.654;2024-03-02T12:39:52;99972.34;;;11.14;61.71
16200;BME280;8207;52.494;4.654;2024-03-02T12:42:17;99968.88;;;11.20;62.49
16200;BME280;8207;52.494;4.654;2024-03-02T12:44:43;99956.88;;;11.22;63.62
16200;BME280;8207;52.494;4.654;2024-03-02T12:47:08;99960.50;;;11.36;64.42
16200;BME280;8207;52.494;4.654;2024-03-02T12:49:34;99965.63;;;11.31;63.53
16200;BME280;8207;52.494;4.654;2024-03-02T12:52:00;99971.50;;;11.41;62.16
16200;BME280;8207;52.494;4.654;2024-03-02T12:54:25;99974.97;;;11.28;59.94
16200;BME280;8207;52.494;4.654;2024-03-02T12:56:52;99956.84;;;11.16;60.86
16200;BME280;8207;52.494;4.654;2024-03-02T12:59:20;99958.75;;;11.22;59.98
16200;BME280;8207;52.494;4.654;2024-03-02T13:01:53;99952.38;;;11.29;61.87
16200;BME280;8207;52.494;4.654;2024-03-02T13:04:26;99952.66;;;11.41;60.84
16200;BME280;8207;52.494;4.654;2024-03-02T13:06:54;99963.00;;;11.38;59.92
16200;BME280;8207;52.494;4.654;2024-03-02T13:09:21;99960.50;;;11.36;58.66
16200;BME280;8207;52.494;4.654;2024-03-02T13:11:47;99956.19;;;11.42;59.57